createdAt,value
2018-05-08T00:00:14.457Z,3.07
2018-05-08T00:02:41.866Z,3.40
2018-05-08T00:05:09.303Z,3.20
2018-05-08T00:07:36.693Z,3.20
2018-05-08T00:10:04.095Z,3.80
2018-05-08T00:12:31.521Z,3.53
2018-05-08T00:14:58.965Z,3.50
2018-05-08T00:17:26.376Z,3.03
2018-05-08T00:19:53.873Z,3.53
2018-05-08T00:22:21.284Z,3.10
2018-05-08T00:24:48.756Z,3.20
2018-05-08T00:27:16.179Z,3.77
2018-05-08T00:29:43.567Z,3.63
2018-05-08T00:32:11.015Z,3.63
2018-05-08T00:34:38.462Z,3.40
2018-05-08T00:37:05.841Z,3.30
2018-05-08T00:39:33.240Z,3.80
2018-05-08T00:42:00.652Z,3.50
2018-05-08T00:44:28.045Z,3.93
2018-05-08T00:46:55.526Z,4.30
2018-05-08T00:49:22.921Z,3.73
2018-05-08T00:51:50.325Z,3.80
2018-05-08T00:54:18.286Z,4.10
2018-05-08T00:56:45.672Z,4.23
2018-05-08T00:59:13.117Z,3.67
2018-05-08T01:01:40.573Z,3.70
2018-05-08T01:04:07.957Z,3.60
2018-05-08T01:06:35.355Z,3.80
2018-05-08T01:09:02.798Z,3.70
2018-05-08T01:11:30.301Z,3.50
2018-05-08T01:13:57.713Z,4.00
2018-05-08T01:16:25.117Z,3.40
2018-05-08T01:18:52.524Z,4.23
2018-05-08T01:21:19.929Z,3.80
2018-05-08T01:23:47.317Z,4.17
2018-05-08T01:26:14.801Z,3.80
2018-05-08T01:28:42.254Z,4.17
2018-05-08T01:31:09.637Z,3.90
2018-05-08T01:33:37.052Z,3.90
2018-05-08T01:36:04.513Z,4.00
2018-05-08T01:38:31.905Z,4.23
2018-05-08T01:40:59.329Z,4.97
2018-05-08T01:43:26.750Z,3.60
2018-05-08T01:45:54.157Z,4.00
2018-05-08T01:48:21.562Z,4.00
2018-05-08T01:50:49.069Z,4.50
2018-05-08T01:53:16.472Z,4.47
2018-05-08T01:55:43.869Z,4.37
2018-05-08T01:58:11.338Z,5.03
2018-05-08T02:00:38.856Z,4.40
2018-05-08T02:03:06.334Z,4.50
2018-05-08T02:05:33.792Z,4.43
2018-05-08T02:08:01.185Z,4.63
2018-05-08T02:10:28.581Z,4.77
2018-05-08T02:12:56.069Z,4.83
2018-05-08T02:15:23.529Z,4.37
2018-05-08T02:17:50.995Z,4.07
2018-05-08T02:20:18.455Z,4.23
2018-05-08T02:22:48.209Z,5.87
2018-05-08T02:25:15.661Z,4.03
2018-05-08T02:27:43.062Z,4.33
2018-05-08T02:30:10.466Z,4.63
2018-05-08T02:32:37.866Z,4.27
2018-05-08T02:35:05.256Z,4.70
2018-05-08T02:37:32.654Z,5.40
2018-05-08T02:40:00.897Z,4.40
2018-05-08T02:42:28.357Z,3.97
2018-05-08T02:44:55.757Z,4.23
2018-05-08T02:47:23.166Z,4.20
2018-05-08T02:49:50.648Z,4.60
2018-05-08T02:52:18.061Z,4.80
2018-05-08T02:54:45.565Z,4.43
2018-05-08T02:57:13.002Z,5.43
2018-05-08T02:59:40.393Z,5.00
2018-05-08T03:02:07.817Z,4.30
2018-05-08T03:04:36.170Z,4.00
2018-05-08T03:07:03.598Z,4.40
2018-05-08T03:09:31.070Z,5.70
2018-05-08T03:11:58.522Z,4.90
2018-05-08T03:14:25.923Z,5.10
2018-05-08T03:16:53.422Z,5.40
2018-05-08T03:19:20.841Z,5.20
2018-05-08T03:21:48.250Z,5.53
2018-05-08T03:24:15.637Z,4.90
2018-05-08T03:26:43.024Z,4.73
2018-05-08T03:29:10.506Z,5.53
2018-05-08T03:31:37.889Z,4.50
2018-05-08T03:34:05.301Z,4.47
2018-05-08T03:36:32.786Z,5.37
2018-05-08T03:41:38.351Z,5.30
2018-05-08T03:44:05.749Z,5.33
2018-05-08T03:46:33.154Z,5.83
2018-05-08T03:49:00.610Z,5.63
2018-05-08T03:51:28.003Z,5.23
2018-05-08T03:53:55.431Z,5.70
2018-05-08T03:56:22.832Z,4.80
2018-05-08T03:58:50.222Z,5.10
2018-05-08T04:01:29.650Z,6.50
2018-05-08T04:04:08.853Z,4.53
2018-05-08T04:07:01.833Z,6.07
2018-05-08T04:09:29.242Z,5.60
2018-05-08T04:11:56.653Z,5.93
2018-05-08T04:14:26.968Z,5.43
2018-05-08T04:16:54.415Z,4.90
2018-05-08T04:19:21.801Z,5.83
2018-05-08T04:21:49.190Z,5.00
2018-05-08T04:24:16.589Z,5.20
2018-05-08T04:26:43.984Z,5.00
2018-05-08T04:29:11.473Z,5.97
2018-05-08T04:31:38.937Z,4.68
2018-05-08T04:34:06.328Z,5.33
2018-05-08T04:36:33.797Z,5.43
2018-05-08T04:39:01.117Z,5.03
2018-05-08T04:41:28.497Z,5.40
2018-05-08T04:43:55.911Z,5.33
2018-05-08T04:46:23.285Z,4.73
2018-05-08T04:48:50.739Z,5.23
2018-05-08T04:51:18.127Z,4.97
2018-05-08T04:53:45.662Z,5.10
2018-05-08T04:56:13.037Z,4.93
2018-05-08T04:58:40.425Z,4.67
2018-05-08T05:01:07.922Z,5.70
2018-05-08T05:03:35.317Z,4.90
2018-05-08T05:06:02.710Z,5.00
2018-05-08T05:08:30.110Z,5.07
2018-05-08T05:10:57.575Z,4.80
2018-05-08T05:13:24.894Z,4.93
2018-05-08T05:15:52.277Z,4.30
2018-05-08T05:18:19.709Z,4.37
2018-05-08T05:20:47.167Z,4.10
2018-05-08T05:23:14.568Z,4.47
2018-05-08T05:25:41.961Z,3.90
2018-05-08T05:28:09.430Z,3.90
2018-05-08T05:30:37.005Z,4.50
2018-05-08T05:33:04.388Z,4.10
2018-05-08T05:35:31.788Z,4.23
2018-05-08T05:37:59.209Z,3.80
2018-05-08T05:40:26.604Z,3.47
2018-05-08T05:42:54.002Z,3.77
2018-05-08T05:45:21.405Z,3.80
2018-05-08T05:47:48.798Z,4.17
2018-05-08T05:50:16.197Z,3.13
2018-05-08T05:52:43.585Z,4.10
2018-05-08T05:55:11.057Z,3.23
2018-05-08T05:57:38.517Z,3.17
2018-05-08T06:00:06.024Z,3.60
2018-05-08T06:02:33.356Z,3.47
2018-05-08T06:05:00.751Z,4.33
2018-05-08T06:07:28.147Z,2.90
2018-05-08T06:09:55.542Z,2.70
2018-05-08T06:12:23.037Z,3.00
2018-05-08T06:14:50.441Z,3.90
2018-05-08T06:17:17.863Z,3.40
2018-05-08T06:19:45.252Z,3.53
2018-05-08T06:22:12.640Z,3.47
2018-05-08T06:24:40.117Z,3.00
2018-05-08T06:27:07.500Z,3.53
2018-05-08T06:29:34.904Z,3.30
2018-05-08T06:32:02.404Z,3.07
2018-05-08T06:34:29.865Z,3.13
2018-05-08T06:36:57.327Z,3.20
2018-05-08T06:39:24.771Z,3.63
2018-05-08T06:41:52.131Z,3.43
2018-05-08T06:44:19.652Z,3.23
2018-05-08T06:46:47.031Z,3.00
2018-05-08T06:49:14.394Z,2.80
2018-05-08T06:51:41.777Z,3.50
2018-05-08T06:54:09.174Z,3.20
2018-05-08T06:56:36.574Z,3.00
2018-05-08T06:59:03.960Z,2.83
2018-05-08T07:01:31.357Z,2.97
2018-05-08T07:03:58.758Z,2.87
2018-05-08T07:06:26.173Z,2.77
2018-05-08T07:08:53.558Z,3.30
2018-05-08T07:11:20.995Z,3.00
2018-05-08T07:13:48.460Z,2.77
2018-05-08T07:16:15.983Z,2.77
2018-05-08T07:18:43.366Z,3.00
2018-05-08T07:21:10.753Z,3.00
2018-05-08T07:23:38.150Z,2.90
2018-05-08T07:26:05.545Z,3.13
2018-05-08T07:28:32.933Z,2.90
2018-05-08T07:31:00.359Z,3.40
2018-05-08T07:33:27.741Z,3.20
2018-05-08T07:35:55.141Z,2.63
2018-05-08T07:38:22.639Z,2.77
2018-05-08T07:40:49.941Z,2.60
2018-05-08T07:43:17.421Z,2.43
2018-05-08T07:45:44.908Z,5.77
2018-05-08T07:48:12.342Z,3.10
2018-05-08T07:50:39.795Z,3.13
2018-05-08T07:53:07.134Z,2.97
2018-05-08T07:55:34.569Z,2.90
2018-05-08T07:58:01.972Z,3.50
2018-05-08T08:00:29.596Z,2.47
2018-05-08T08:02:56.987Z,2.67
2018-05-08T08:05:24.377Z,2.33
2018-05-08T08:07:51.773Z,2.53
2018-05-08T08:10:19.177Z,2.60
2018-05-08T08:12:46.565Z,2.63
2018-05-08T08:15:13.962Z,2.07
2018-05-08T08:17:41.439Z,3.37
2018-05-08T08:20:08.881Z,2.30
2018-05-08T08:22:36.339Z,2.40
2018-05-08T08:25:03.741Z,2.57
2018-05-08T08:27:31.135Z,2.73
2018-05-08T08:29:58.536Z,2.73
2018-05-08T08:32:25.956Z,2.87
2018-05-08T08:34:53.414Z,2.23
2018-05-08T08:37:21.457Z,2.30
2018-05-08T08:39:48.853Z,2.60
2018-05-08T08:42:16.297Z,2.23
2018-05-08T08:44:43.699Z,2.27
2018-05-08T08:47:11.101Z,2.70
2018-05-08T08:49:38.517Z,2.20
2018-05-08T08:52:05.904Z,2.07
2018-05-08T08:54:33.307Z,2.10
2018-05-08T08:57:00.705Z,2.30
2018-05-08T08:59:28.102Z,3.13
2018-05-08T09:01:55.505Z,2.23
2018-05-08T09:04:22.897Z,2.60
2018-05-08T09:06:50.294Z,2.23
2018-05-08T09:09:17.681Z,2.37
2018-05-08T09:11:45.077Z,2.03
2018-05-08T09:14:12.470Z,3.00
2018-05-08T09:16:39.881Z,2.23
2018-05-08T09:19:07.361Z,2.07
2018-05-08T09:21:34.761Z,2.40
2018-05-08T09:24:02.173Z,1.83
2018-05-08T09:26:29.642Z,2.10
2018-05-08T09:28:57.078Z,1.73
2018-05-08T09:31:24.472Z,2.10
2018-05-08T09:33:51.908Z,1.70
2018-05-08T09:36:19.338Z,1.53
2018-05-08T09:38:46.797Z,1.73
2018-05-08T09:41:14.217Z,1.73
2018-05-08T09:43:41.725Z,1.87
2018-05-08T09:46:09.126Z,1.90
2018-05-08T09:48:36.517Z,1.60
2018-05-08T09:51:03.926Z,1.40
2018-05-08T09:53:31.312Z,2.00
2018-05-08T09:55:58.720Z,1.57
2018-05-08T09:58:26.149Z,1.60
2018-05-08T10:00:53.607Z,1.43
2018-05-08T10:03:20.949Z,2.43
2018-05-08T10:05:48.358Z,1.37
2018-05-08T10:08:15.773Z,1.57
2018-05-08T10:10:43.174Z,1.60
2018-05-08T10:13:10.560Z,1.53
2018-05-08T10:15:38.041Z,1.70
2018-05-08T10:18:05.459Z,1.77
2018-05-08T10:20:32.886Z,1.50
2018-05-08T10:23:00.277Z,1.20
2018-05-08T10:25:27.689Z,1.60
2018-05-08T10:27:55.182Z,1.47
2018-05-08T10:30:22.585Z,1.77
2018-05-08T10:32:50.047Z,1.50
2018-05-08T10:35:17.513Z,1.90
2018-05-08T10:37:44.915Z,1.90
2018-05-08T10:40:12.316Z,1.43
2018-05-08T10:42:39.711Z,1.67
2018-05-08T10:45:07.130Z,1.47
2018-05-08T10:47:34.522Z,1.40
2018-05-08T10:50:01.906Z,1.33
2018-05-08T10:52:29.313Z,1.37
2018-05-08T10:54:56.813Z,1.20
2018-05-08T10:57:24.207Z,1.87
2018-05-08T10:59:51.596Z,1.70
2018-05-08T11:02:19.073Z,2.03
2018-05-08T11:04:46.534Z,1.83
2018-05-08T11:07:13.929Z,1.77
2018-05-08T11:09:41.438Z,1.50
2018-05-08T11:12:08.905Z,1.80
2018-05-08T11:14:36.310Z,1.43
2018-05-08T11:17:03.717Z,1.60
2018-05-08T11:19:31.177Z,1.70
2018-05-08T11:21:58.633Z,1.60
2018-05-08T11:24:26.021Z,2.00
2018-05-08T11:26:53.514Z,1.77
2018-05-08T11:29:20.923Z,1.60
2018-05-08T11:31:48.321Z,1.70
2018-05-08T11:34:15.713Z,1.77
2018-05-08T11:36:43.109Z,2.00
2018-05-08T11:39:10.500Z,1.70
2018-05-08T11:41:37.986Z,1.37
2018-05-08T11:44:05.450Z,1.57
2018-05-08T11:46:32.894Z,1.60
2018-05-08T11:49:00.363Z,1.40
2018-05-08T11:51:27.832Z,1.20
2018-05-08T11:53:55.211Z,1.30
2018-05-08T11:56:22.649Z,1.40
2018-05-08T11:58:50.089Z,1.20
2018-05-08T12:01:17.493Z,1.37
2018-05-08T12:03:44.909Z,1.83
2018-05-08T12:06:12.305Z,1.60
2018-05-08T12:08:39.817Z,1.50
2018-05-08T12:11:07.213Z,1.60
2018-05-08T12:13:34.605Z,1.50
2018-05-08T12:16:01.998Z,1.30
2018-05-08T12:18:29.462Z,1.33
2018-05-08T12:20:56.862Z,2.10
2018-05-08T12:23:24.255Z,1.73
2018-05-08T12:25:51.645Z,1.40
2018-05-08T12:28:19.029Z,1.60
2018-05-08T12:30:46.630Z,1.50
2018-05-08T12:33:13.926Z,1.13
2018-05-08T12:35:41.321Z,1.93
2018-05-08T12:38:08.815Z,1.63
2018-05-08T12:40:36.282Z,1.60
2018-05-08T12:43:03.668Z,1.40
2018-05-08T12:45:31.061Z,1.40
2018-05-08T12:47:58.458Z,1.90
2018-05-08T12:50:25.934Z,1.70
2018-05-08T12:52:53.262Z,1.20
2018-05-08T12:55:20.653Z,1.67
2018-05-08T12:57:48.157Z,1.13
2018-05-08T13:00:15.635Z,1.33
2018-05-08T13:02:43.025Z,1.27
2018-05-08T13:05:10.424Z,1.50
2018-05-08T13:07:37.829Z,1.80
2018-05-08T13:10:05.222Z,1.50
2018-05-08T13:12:32.619Z,1.70
2018-05-08T13:15:00.001Z,1.53
2018-05-08T13:17:27.429Z,1.53
2018-05-08T13:19:54.890Z,1.60
2018-05-08T13:22:22.329Z,1.73
2018-05-08T13:24:49.718Z,1.77
2018-05-08T13:27:17.146Z,1.70
2018-05-08T13:29:44.601Z,1.30
2018-05-08T13:32:12.057Z,1.50
2018-05-08T13:34:39.445Z,1.20
2018-05-08T13:37:06.958Z,2.93
2018-05-08T13:39:34.444Z,1.40
2018-05-08T13:42:01.918Z,1.43
2018-05-08T13:44:29.298Z,1.57
2018-05-08T13:46:56.693Z,1.40
2018-05-08T13:49:24.090Z,1.70
2018-05-08T13:51:51.511Z,1.33
2018-05-08T13:54:18.977Z,1.57
2018-05-08T13:56:46.438Z,1.50
2018-05-08T13:59:13.889Z,1.43
2018-05-08T14:01:41.370Z,1.80
2018-05-08T14:04:08.752Z,1.30
2018-05-08T14:06:36.181Z,1.60
2018-05-08T14:09:03.555Z,1.47
2018-05-08T14:11:30.991Z,1.20
2018-05-08T14:13:58.429Z,1.77
2018-05-08T14:16:25.925Z,1.40
2018-05-08T14:18:53.330Z,2.17
2018-05-08T14:21:20.816Z,1.90
2018-05-08T14:23:48.209Z,1.30
2018-05-08T14:26:15.602Z,1.37
2018-05-08T14:28:43.012Z,1.80
2018-05-08T14:31:10.457Z,1.53
2018-05-08T14:33:37.849Z,1.80
2018-05-08T14:36:05.291Z,1.73
2018-05-08T14:38:32.667Z,1.63
2018-05-08T14:41:00.049Z,1.27
2018-05-08T14:43:27.544Z,1.80
2018-05-08T14:45:54.986Z,1.53
2018-05-08T14:48:22.386Z,1.57
2018-05-08T14:50:49.797Z,1.53
2018-05-08T14:53:17.198Z,1.70
2018-05-08T14:55:44.610Z,1.50
2018-05-08T14:58:12.016Z,1.47
2018-05-08T15:00:39.405Z,1.60
2018-05-08T15:03:06.873Z,1.67
2018-05-08T15:05:34.345Z,1.50
2018-05-08T15:08:01.799Z,1.70
2018-05-08T15:10:29.189Z,1.27
2018-05-08T15:12:56.586Z,1.73
2018-05-08T15:15:23.968Z,1.50
2018-05-08T15:17:51.372Z,1.50
2018-05-08T15:20:18.776Z,1.67
2018-05-08T15:22:46.233Z,1.60
2018-05-08T15:25:13.692Z,1.83
2018-05-08T15:27:41.085Z,1.80
2018-05-08T15:30:08.470Z,1.80
2018-05-08T15:32:35.969Z,1.50
2018-05-08T15:35:03.421Z,1.47
2018-05-08T15:37:30.818Z,1.20
2018-05-08T15:39:58.231Z,1.63
2018-05-08T15:42:25.690Z,1.30
2018-05-08T15:44:53.080Z,1.50
2018-05-08T15:49:43.065Z,1.80
2018-05-08T15:52:10.464Z,2.30
2018-05-08T15:54:37.960Z,1.73
2018-05-08T15:57:05.409Z,1.70
2018-05-08T15:59:32.878Z,1.67
2018-05-08T16:02:00.281Z,2.03
2018-05-08T16:04:27.676Z,2.00
2018-05-08T16:06:55.064Z,1.73
2018-05-08T16:09:22.465Z,1.30
2018-05-08T16:11:49.858Z,2.20
2018-05-08T16:14:17.330Z,1.90
2018-05-08T16:16:44.717Z,1.97
2018-05-08T16:19:12.121Z,1.97
2018-05-08T16:21:39.595Z,2.30
2018-05-08T16:24:07.038Z,1.80
2018-05-08T16:26:34.507Z,1.60
2018-05-08T16:29:01.898Z,1.77
2018-05-08T16:31:29.319Z,1.63
2018-05-08T16:33:56.760Z,1.70
2018-05-08T16:36:24.146Z,1.57
2018-05-08T16:38:51.597Z,1.80
2018-05-08T16:41:18.974Z,1.90
2018-05-08T16:43:46.385Z,1.57
2018-05-08T16:46:13.825Z,2.10
2018-05-08T16:48:41.301Z,1.80
2018-05-08T16:51:08.793Z,1.87
2018-05-08T16:53:36.186Z,1.60
2018-05-08T16:56:03.587Z,2.10
2018-05-08T16:58:31.006Z,1.50
2018-05-08T17:00:58.394Z,1.60
2018-05-08T17:03:25.837Z,2.10
2018-05-08T17:05:53.305Z,2.33
2018-05-08T17:08:20.730Z,2.27
2018-05-08T17:10:48.141Z,1.93
2018-05-08T17:13:15.547Z,1.63
2018-05-08T17:15:43.044Z,1.90
2018-05-08T17:18:10.433Z,1.80
2018-05-08T17:20:37.867Z,1.77
2018-05-08T17:23:05.278Z,1.90
2018-05-08T17:25:32.694Z,1.90
2018-05-08T17:28:00.087Z,1.80
2018-05-08T17:30:27.474Z,2.07
2018-05-08T17:32:54.883Z,1.80
2018-05-08T17:35:22.286Z,2.53
2018-05-08T17:37:49.729Z,4.80
2018-05-08T17:40:17.137Z,1.90
2018-05-08T17:42:44.554Z,1.80
2018-05-08T17:45:12.019Z,1.70
2018-05-08T17:47:39.413Z,1.60
2018-05-08T17:50:06.849Z,2.03
2018-05-08T17:52:34.258Z,2.37
2018-05-08T17:55:01.647Z,2.03
2018-05-08T17:57:29.056Z,1.53
2018-05-08T17:59:56.469Z,1.93
2018-05-08T18:02:23.953Z,2.03
2018-05-08T18:04:51.370Z,1.87
2018-05-08T18:07:18.770Z,1.77
2018-05-08T18:09:46.173Z,2.80
2018-05-08T18:12:13.559Z,2.40
2018-05-08T18:14:41.001Z,3.10
2018-05-08T18:17:08.468Z,2.30
2018-05-08T18:19:35.950Z,3.43
2018-05-08T18:22:03.401Z,1.97
2018-05-08T18:24:30.784Z,2.03
2018-05-08T18:26:58.190Z,2.40
2018-05-08T18:29:25.585Z,2.30
2018-05-08T18:31:52.993Z,1.90
2018-05-08T18:34:20.527Z,2.63
2018-05-08T18:36:47.785Z,2.13
2018-05-08T18:39:15.193Z,3.00
2018-05-08T18:41:42.630Z,2.47
2018-05-08T18:44:10.041Z,2.50
2018-05-08T18:46:37.615Z,2.70
2018-05-08T18:49:05.095Z,2.53
2018-05-08T18:51:32.483Z,2.40
2018-05-08T18:53:59.882Z,2.63
2018-05-08T18:56:27.274Z,2.57
2018-05-08T18:58:54.738Z,2.70
2018-05-08T19:01:22.226Z,2.50
2018-05-08T19:03:49.686Z,2.60
2018-05-08T19:06:17.150Z,2.80
2018-05-08T19:08:44.647Z,2.60
2018-05-08T19:11:17.685Z,2.70
2018-05-08T19:13:45.096Z,2.60
2018-05-08T19:16:12.486Z,2.77
2018-05-08T19:18:45.421Z,2.60
2018-05-08T19:21:12.814Z,2.50
2018-05-08T19:23:45.997Z,3.27
2018-05-08T19:26:13.398Z,2.77
2018-05-08T19:28:46.577Z,3.37
2018-05-08T19:31:13.962Z,2.50
2018-05-08T19:33:41.390Z,2.50
2018-05-08T19:36:14.553Z,2.77
2018-05-08T19:38:41.967Z,2.47
2018-05-08T19:41:09.369Z,2.83
2018-05-08T19:43:36.770Z,4.53
2018-05-08T19:46:04.161Z,2.90
2018-05-08T19:48:31.556Z,2.50
2018-05-08T19:50:58.953Z,2.37
2018-05-08T19:53:26.437Z,2.23
2018-05-08T19:55:53.962Z,2.43
2018-05-08T19:58:21.442Z,2.23
2018-05-08T20:00:48.829Z,2.90
2018-05-08T20:03:16.273Z,2.50
2018-05-08T20:05:43.664Z,3.27
2018-05-08T20:08:11.065Z,3.03
2018-05-08T20:10:38.462Z,2.87
2018-05-08T20:13:05.857Z,3.20
2018-05-08T20:15:33.360Z,3.10
2018-05-08T20:18:00.853Z,2.73
2018-05-08T20:20:28.365Z,2.67
2018-05-08T20:22:55.775Z,3.27
2018-05-08T20:25:23.197Z,2.70
2018-05-08T20:27:50.597Z,2.30
2018-05-08T20:30:18.039Z,2.63
2018-05-08T20:32:45.492Z,2.60
2018-05-08T20:35:12.909Z,2.80
2018-05-08T20:37:40.313Z,2.50
2018-05-08T20:40:07.717Z,2.50
2018-05-08T20:42:35.193Z,3.20
2018-05-08T20:45:02.638Z,2.43
2018-05-08T20:47:30.033Z,2.50
2018-05-08T20:49:57.458Z,2.80
2018-05-08T20:52:24.910Z,3.27
2018-05-08T20:54:52.307Z,2.43
2018-05-08T20:57:19.700Z,3.57
2018-05-08T20:59:47.093Z,3.60
2018-05-08T21:02:14.494Z,3.40
2018-05-08T21:04:41.904Z,2.80
2018-05-08T21:07:09.298Z,3.33
2018-05-08T21:09:36.689Z,2.57
2018-05-08T21:12:04.089Z,3.10
2018-05-08T21:14:31.483Z,3.13
2018-05-08T21:16:58.865Z,2.80
2018-05-08T21:19:26.270Z,2.50
2018-05-08T21:21:53.654Z,2.90
2018-05-08T21:24:22.023Z,2.70
2018-05-08T21:29:29.020Z,3.13
2018-05-08T21:31:56.424Z,2.67
2018-05-08T21:34:23.850Z,3.20
2018-05-08T21:36:51.232Z,3.30
2018-05-08T21:39:18.653Z,3.30
2018-05-08T21:41:46.060Z,2.37
2018-05-08T21:44:13.462Z,2.67
2018-05-08T21:46:40.844Z,2.93
2018-05-08T21:49:08.301Z,3.20
2018-05-08T21:51:35.767Z,2.23
2018-05-08T21:54:03.152Z,3.10
2018-05-08T21:56:30.562Z,3.00
2018-05-08T21:58:57.964Z,3.33
2018-05-08T22:01:25.358Z,3.10
2018-05-08T22:03:52.776Z,3.17
2018-05-08T22:06:20.189Z,3.20
2018-05-08T22:08:47.593Z,4.20
2018-05-08T22:11:14.984Z,3.50
2018-05-08T22:13:42.374Z,3.80
2018-05-08T22:16:09.761Z,3.87
2018-05-08T22:18:37.165Z,3.43
2018-05-08T22:21:04.561Z,5.00
2018-05-08T22:23:31.961Z,3.73
2018-05-08T22:25:59.454Z,3.97
2018-05-08T22:28:26.855Z,4.63
2018-05-08T22:30:54.255Z,2.83
2018-05-08T22:33:21.705Z,3.23
2018-05-08T22:35:49.098Z,3.37
2018-05-08T22:38:16.505Z,2.70
2018-05-08T22:40:43.946Z,3.27
2018-05-08T22:43:11.355Z,3.50
2018-05-08T22:45:38.877Z,3.07
2018-05-08T22:48:06.269Z,3.63
2018-05-08T22:50:33.673Z,2.80
2018-05-08T22:53:01.061Z,2.87
2018-05-08T22:55:28.462Z,3.30
2018-05-08T22:57:55.956Z,2.67
2018-05-08T23:00:23.392Z,3.20
2018-05-08T23:02:50.857Z,3.20
2018-05-08T23:05:18.308Z,3.07
2018-05-08T23:07:45.761Z,3.80
2018-05-08T23:10:13.169Z,3.43
2018-05-08T23:12:40.556Z,2.80
2018-05-08T23:15:07.951Z,3.30
2018-05-08T23:17:35.399Z,3.03
2018-05-08T23:20:02.899Z,3.33
2018-05-08T23:22:30.307Z,3.00
2018-05-08T23:24:57.702Z,3.13
2018-05-08T23:27:25.166Z,2.87
2018-05-08T23:29:52.625Z,2.70
2018-05-08T23:32:20.076Z,3.17
2018-05-08T23:34:47.476Z,3.23
2018-05-08T23:37:14.874Z,3.10
2018-05-08T23:39:42.261Z,2.73
2018-05-08T23:42:09.649Z,2.90
2018-05-08T23:44:37.156Z,2.67
2018-05-08T23:47:04.628Z,3.27
2018-05-08T23:49:32.033Z,3.03
2018-05-08T23:51:59.429Z,3.20
2018-05-08T23:54:26.821Z,2.83
2018-05-08T23:56:54.207Z,2.70
2018-05-08T23:59:21.616Z,3.33
